Time;durP1;ratioP1;P1;durP2;ratioP2;P2;SDS_P1;SDS_P2;PMS_P1;PMS_P2;Temp;Humidity;BMP_temperature;BMP_pressure;BME280_temperature;BME280_humidity;BME280_pressure;Samples;Min_cycle;Max_cycle;Signal;HPM_P1;HPM_P2
2024/01/13 00:01:54;;;;;;;55.40;30.70;;;3.50;99.90;;;;;;5055118;28;20033;-80
2024/01/13 00:04:20;;;;;;;54.75;30.83;;;3.50;99.90;;;;;;5036432;28;20067;-79
2024/01/13 00:06:45;;;;;;;57.22;30.98;;;3.50;99.90;;;;;;5036607;28;20036;-80
2024/01/13 00:09:13;;;;;;;59.72;31.17;;;3.50;99.90;;;;;;5037286;28;20035;-80
2024/01/13 00:11:41;;;;;;;58.90;31.08;;;3.50;99.90;;;;;;5036466;28;20028;-80
2024/01/13 00:14:06;;;;;;;56.88;29.85;;;3.40;99.90;;;;;;5036760;28;20053;-80
2024/01/13 00:16:32;;;;;;;59.58;31.27;;;3.40;99.90;;;;;;5036282;28;20056;-80
2024/01/13 00:18:58;;;;;;;55.47;28.77;;;3.40;99.90;;;;;;5035285;28;20017;-79
2024/01/13 00:21:23;;;;;;;58.30;31.33;;;3.40;99.90;;;;;;5034190;28;20032;-80
2024/01/13 00:23:49;;;;;;;55.22;28.88;;;3.40;99.90;;;;;;5043398;28;20081;-80
2024/01/13 00:26:14;;;;;;;48.83;26.08;;;3.40;99.90;;;;;;5036560;28;20465;-80
2024/01/13 00:28:43;;;;;;;49.90;27.77;;;3.40;99.90;;;;;;5035773;28;20037;-80
2024/01/13 00:31:08;;;;;;;44.53;23.33;;;3.40;99.90;;;;;;5036782;28;20021;-80
2024/01/13 00:33:34;;;;;;;47.38;25.35;;;3.40;99.90;;;;;;5036394;28;20028;-80
2024/01/13 00:36:02;;;;;;;41.20;22.08;;;3.40;99.90;;;;;;5035133;28;20025;-80
2024/01/13 00:38:30;;;;;;;36.65;20.23;;;3.40;99.90;;;;;;5031819;28;20037;-80
2024/01/13 00:40:58;;;;;;;37.65;21.13;;;3.40;99.90;;;;;;5036013;28;20050;-80
2024/01/13 00:43:23;;;;;;;35.67;19.98;;;3.40;99.90;;;;;;5053926;28;20017;-80
2024/01/13 00:45:49;;;;;;;31.23;19.40;;;3.40;99.90;;;;;;5036319;28;20048;-80
2024/01/13 00:48:14;;;;;;;29.65;17.17;;;3.40;99.90;;;;;;5053592;28;20067;-80
2024/01/13 00:50:43;;;;;;;32.83;18.85;;;3.40;99.90;;;;;;5034792;28;20134;-80
2024/01/13 00:53:08;;;;;;;29.27;17.67;;;3.40;99.90;;;;;;5020041;28;20113;-80
2024/01/13 00:55:34;;;;;;;31.65;16.92;;;3.40;99.90;;;;;;5033916;28;20512;-80
2024/01/13 00:58:00;;;;;;;34.88;17.90;;;3.40;99.90;;;;;;5032647;28;20036;-79
2024/01/13 01:00:27;;;;;;;27.65;16.38;;;3.40;99.90;;;;;;5035220;28;20542;-80
2024/01/13 01:02:53;;;;;;;30.75;17.60;;;3.40;99.90;;;;;;5053016;28;20154;-79
2024/01/13 01:05:18;;;;;;;33.28;18.02;;;3.40;99.90;;;;;;5018675;28;20052;-79
2024/01/13 01:07:44;;;;;;;29.85;16.02;;;3.40;99.90;;;;;;5035975;28;20439;-80
2024/01/13 01:10:10;;;;;;;33.58;15.93;;;3.40;99.90;;;;;;5053355;28;20027;-80
2024/01/13 01:12:35;;;;;;;33.03;16.83;;;3.40;99.90;;;;;;5035471;28;20531;-80
2024/01/13 01:15:01;;;;;;;31.65;18.05;;;3.40;99.90;;;;;;5053796;28;20021;-80
2024/01/13 01:17:26;;;;;;;31.13;15.73;;;3.40;99.90;;;;;;5035488;28;20096;-80
2024/01/13 01:19:52;;;;;;;30.92;16.13;;;3.40;99.90;;;;;;5031128;28;20021;-79
2024/01/13 01:22:18;;;;;;;30.67;15.90;;;3.40;99.90;;;;;;5035231;28;20040;-80
2024/01/13 01:24:43;;;;;;;29.80;15.68;;;3.40;99.90;;;;;;5047047;28;20041;-80
2024/01/13 01:27:10;;;;;;;24.70;12.93;;;3.40;99.90;;;;;;5018935;28;20087;-79
2024/01/13 01:29:35;;;;;;;28.35;13.73;;;3.40;99.90;;;;;;5033470;28;20464;-79
2024/01/13 01:32:04;;;;;;;27.95;14.00;;;3.40;99.90;;;;;;5042937;28;20025;-79
2024/01/13 01:34:30;;;;;;;24.15;13.13;;;3.40;99.90;;;;;;5047000;28;20108;-79
2024/01/13 01:36:55;;;;;;;26.08;13.50;;;3.40;99.90;;;;;;5043190;28;20504;-78
2024/01/13 01:39:21;;;;;;;25.92;13.73;;;3.40;99.90;;;;;;5032848;28;20029;-79
2024/01/13 01:41:46;;;;;;;25.45;13.25;;;3.40;99.90;;;;;;5040025;28;20041;-79
2024/01/13 01:44:12;;;;;;;18.73;10.20;;;3.40;99.90;;;;;;5040119;28;20033;-79
2024/01/13 01:46:39;;;;;;;21.77;10.90;;;3.40;99.90;;;;;;5034744;28;20477;-79
2024/01/13 01:49:05;;;;;;;19.70;10.02;;;3.40;99.90;;;;;;5031908;28;20025;-79
2024/01/13 01:51:32;;;;;;;17.30;9.20;;;3.40;99.90;;;;;;5049180;28;20400;-79
2024/01/13 01:53:58;;;;;;;17.10;9.30;;;3.40;99.90;;;;;;5053211;28;20052;-79
2024/01/13 01:56:28;;;;;;;18.23;8.60;;;3.40;99.90;;;;;;5034996;28;20052;-79
2024/01/13 01:58:54;;;;;;;13.43;7.65;;;3.30;99.90;;;;;;5052741;28;20025;-79
2024/01/13 02:01:22;;;;;;;19.23;8.98;;;3.40;99.90;;;;;;5034474;28;20024;-79
2024/01/13 02:03:48;;;;;;;14.82;8.15;;;3.40;99.90;;;;;;5034498;28;20067;-78
2024/01/13 02:06:15;;;;;;;16.27;8.18;;;3.40;99.90;;;;;;5051467;28;20017;-79
2024/01/13 02:08:41;;;;;;;15.82;8.77;;;3.40;99.90;;;;;;5052381;28;20033;-79
2024/01/13 02:11:10;;;;;;;18.00;9.45;;;3.50;99.90;;;;;;5048718;28;20034;-79
2024/01/13 02:13:36;;;;;;;17.52;9.45;;;3.50;99.90;;;;;;5032340;28;20199;-78
2024/01/13 02:16:04;;;;;;;16.77;9.88;;;3.50;99.90;;;;;;5033725;28;20115;-79
2024/01/13 02:18:29;;;;;;;19.35;9.85;;;3.50;99.90;;;;;;5051581;28;20108;-79
2024/01/13 02:20:55;;;;;;;17.02;9.07;;;3.40;99.90;;;;;;5051117;28;20033;-78
2024/01/13 02:23:21;;;;;;;15.88;9.77;;;3.40;99.90;;;;;;5044044;28;20051;-79
2024/01/13 02:25:46;;;;;;;18.10;9.07;;;3.40;99.90;;;;;;5052551;28;20112;-79
2024/01/13 02:28:16;;;;;;;22.42;9.48;;;3.40;99.90;;;;;;5034373;28;20048;-79
2024/01/13 02:30:41;;;;;;;18.17;9.63;;;3.40;99.90;;;;;;5030239;28;20026;-79
2024/01/13 02:33:07;;;;;;;18.42;9.85;;;3.40;99.90;;;;;;5045571;28;20044;-79
2024/01/13 02:35:32;;;;;;;19.42;10.82;;;3.40;99.90;;;;;;5033903;28;20025;-79
2024/01/13 02:37:58;;;;;;;20.58;10.75;;;3.40;99.90;;;;;;5051905;28;20028;-80
2024/01/13 02:40:26;;;;;;;18.00;10.57;;;3.40;99.90;;;;;;5039006;28;20067;-78
2024/01/13 02:42:51;;;;;;;16.77;9.73;;;3.40;99.90;;;;;;5052172;28;20468;-79
2024/01/13 02:45:17;;;;;;;19.20;9.77;;;3.30;99.90;;;;;;5051539;28;20064;-79
2024/01/13 02:47:47;;;;;;;21.63;11.77;;;3.40;99.90;;;;;;5051286;28;20519;-79
2024/01/13 02:50:13;;;;;;;19.65;11.18;;;3.40;99.90;;;;;;5032075;28;20112;-79
2024/01/13 02:52:40;;;;;;;20.75;11.40;;;3.30;99.90;;;;;;5031235;28;20039;-80
2024/01/13 02:55:08;;;;;;;19.33;11.10;;;3.40;99.90;;;;;;5049624;28;20381;-80
2024/01/13 02:57:34;;;;;;;21.85;11.95;;;3.40;99.90;;;;;;5027640;28;20029;-80
2024/01/13 02:59:59;;;;;;;17.92;10.43;;;3.40;99.90;;;;;;5026772;28;20120;-80
2024/01/13 03:02:25;;;;;;;20.05;11.05;;;3.40;99.90;;;;;;5029897;28;20041;-80
2024/01/13 03:04:52;;;;;;;21.13;12.30;;;3.40;99.90;;;;;;5040713;28;20028;-80
2024/01/13 03:07:18;;;;;;;22.40;11.07;;;3.30;99.90;;;;;;5049405;28;20041;-80
2024/01/13 03:09:44;;;;;;;21.17;12.90;;;3.30;99.90;;;;;;5040668;28;20051;-80
2024/01/13 03:12:10;;;;;;;24.10;12.63;;;3.40;99.90;;;;;;5046312;28;20840;-80
2024/01/13 03:14:37;;;;;;;22.27;12.68;;;3.40;99.90;;;;;;5064818;28;20512;-80
2024/01/13 03:17:03;;;;;;;24.63;13.27;;;3.30;99.90;;;;;;5049297;28;20033;-80
2024/01/13 03:19:29;;;;;;;21.70;12.38;;;3.40;99.90;;;;;;5035910;28;20029;-80
2024/01/13 03:21:55;;;;;;;23.90;12.98;;;3.30;99.90;;;;;;5035497;28;20068;-79
2024/01/13 03:24:20;;;;;;;23.63;13.15;;;3.40;99.90;;;;;;5061634;28;20104;-80
2024/01/13 03:26:46;;;;;;;24.20;12.88;;;3.40;99.90;;;;;;5045538;28;20057;-84
2024/01/13 03:29:13;;;;;;;24.85;14.20;;;3.30;99.90;;;;;;5029995;28;20123;-82
2024/01/13 03:31:38;;;;;;;26.83;14.95;;;3.40;99.90;;;;;;5028414;28;20017;-86
2024/01/13 03:34:04;;;;;;;27.45;15.23;;;3.40;99.90;;;;;;5043330;28;20064;-81
2024/01/13 03:36:29;;;;;;;27.77;14.77;;;3.30;99.90;;;;;;5017136;28;20188;-82
2024/01/13 03:38:56;;;;;;;29.90;16.92;;;3.30;99.90;;;;;;5054910;28;20441;-79
2024/01/13 03:41:22;;;;;;;32.05;16.15;;;3.30;99.90;;;;;;5059618;28;20078;-79
2024/01/13 03:43:50;;;;;;;28.60;16.73;;;3.30;99.90;;;;;;5058588;28;20111;-79
2024/01/13 03:46:16;;;;;;;32.35;18.02;;;3.30;99.90;;;;;;5059388;28;20099;-79
2024/01/13 03:48:42;;;;;;;34.33;18.70;;;3.30;99.90;;;;;;5041748;28;20112;-78
2024/01/13 03:51:12;;;;;;;33.63;20.10;;;3.20;99.90;;;;;;5059698;28;20424;-79
2024/01/13 03:53:38;;;;;;;30.92;19.15;;;3.30;99.90;;;;;;5057088;28;20108;-78
2024/01/13 03:56:08;;;;;;;45.65;20.80;;;3.20;99.90;;;;;;5025339;28;20036;-78
2024/01/13 03:58:35;;;;;;;37.20;20.55;;;3.20;99.90;;;;;;5039782;28;20053;-78
2024/01/13 04:01:02;;;;;;;36.80;20.63;;;3.20;99.90;;;;;;5057809;28;20475;-80
2024/01/13 04:03:28;;;;;;;33.63;19.92;;;3.20;99.90;;;;;;5044180;28;20036;-80
2024/01/13 04:05:53;;;;;;;39.50;23.38;;;3.20;99.90;;;;;;5035552;28;20029;-80
2024/01/13 04:08:19;;;;;;;35.42;20.42;;;3.30;99.90;;;;;;5042990;28;20041;-79
2024/01/13 04:10:45;;;;;;;40.05;21.83;;;3.20;99.90;;;;;;5046427;28;20477;-79
2024/01/13 04:13:12;;;;;;;43.33;23.52;;;3.20;99.90;;;;;;5015685;28;20033;-79
2024/01/13 04:15:38;;;;;;;40.90;24.30;;;3.20;99.90;;;;;;5034417;28;20028;-79
2024/01/13 04:18:04;;;;;;;43.08;24.48;;;3.20;99.90;;;;;;5049745;28;20389;-79
2024/01/13 04:20:29;;;;;;;36.63;22.45;;;3.30;99.90;;;;;;5034059;28;20036;-79
2024/01/13 04:22:55;;;;;;;44.63;25.13;;;3.30;99.90;;;;;;5032110;28;20044;-80
2024/01/13 04:25:21;;;;;;;35.45;22.63;;;3.30;99.90;;;;;;5032652;28;20476;-78
2024/01/13 04:27:48;;;;;;;42.25;24.23;;;3.30;99.90;;;;;;5026428;28;20033;-78
2024/01/13 04:30:14;;;;;;;41.67;25.15;;;3.30;99.90;;;;;;5058261;28;20042;-78
2024/01/13 04:32:40;;;;;;;38.90;22.55;;;3.20;99.90;;;;;;5056995;28;20065;-78
2024/01/13 04:35:06;;;;;;;38.28;22.33;;;3.30;99.90;;;;;;5053667;28;20093;-78
2024/01/13 04:37:32;;;;;;;41.47;24.13;;;3.30;99.90;;;;;;5052995;28;20417;-79
2024/01/13 04:39:57;;;;;;;42.58;25.17;;;3.20;99.90;;;;;;5020784;28;20079;-79
2024/01/13 04:42:23;;;;;;;43.47;25.52;;;3.30;99.90;;;;;;5030717;28;20029;-78
2024/01/13 04:44:49;;;;;;;43.70;25.98;;;3.30;99.90;;;;;;5049810;28;20127;-78
2024/01/13 04:47:15;;;;;;;40.08;23.70;;;3.30;99.90;;;;;;5047852;28;20041;-78
2024/01/13 04:49:43;;;;;;;47.78;26.60;;;3.30;99.90;;;;;;5051221;28;20028;-79
2024/01/13 04:52:10;;;;;;;41.08;24.63;;;3.30;99.90;;;;;;5054784;28;20025;-78
2024/01/13 04:54:35;;;;;;;37.78;22.50;;;3.30;99.90;;;;;;5040809;28;20025;-78
2024/01/13 04:57:01;;;;;;;33.95;21.23;;;3.30;99.90;;;;;;5035169;28;20043;-79
2024/01/13 04:59:28;;;;;;;35.88;20.65;;;3.30;99.90;;;;;;5053156;28;20458;-78
2024/01/13 05:01:54;;;;;;;33.30;21.05;;;3.30;99.90;;;;;;5052802;28;20083;-79
2024/01/13 05:04:20;;;;;;;30.33;20.25;;;3.30;99.90;;;;;;5045148;28;20042;-79
2024/01/13 05:06:46;;;;;;;34.80;21.15;;;3.30;99.90;;;;;;5053769;28;20028;-79
2024/01/13 05:09:11;;;;;;;32.80;20.02;;;3.30;99.90;;;;;;5043800;28;20473;-78
2024/01/13 05:11:37;;;;;;;32.78;19.80;;;3.30;99.90;;;;;;5052192;28;20029;-79
2024/01/13 05:14:02;;;;;;;29.60;18.52;;;3.40;99.90;;;;;;5036839;28;20449;-80
2024/01/13 05:16:30;;;;;;;28.20;16.50;;;3.40;99.90;;;;;;5033842;28;20029;-80
2024/01/13 05:18:57;;;;;;;34.38;19.98;;;3.40;99.90;;;;;;5055168;28;20020;-78
2024/01/13 05:21:24;;;;;;;27.75;17.58;;;3.40;99.90;;;;;;5026269;28;20024;-77
2024/01/13 05:23:50;;;;;;;36.35;19.42;;;3.40;99.90;;;;;;5035922;28;20073;-79
2024/01/13 05:26:16;;;;;;;30.38;18.08;;;3.40;99.90;;;;;;5039962;28;20532;-79
2024/01/13 05:28:44;;;;;;;30.13;18.30;;;3.40;99.90;;;;;;5045446;28;20116;-79
2024/01/13 05:31:09;;;;;;;29.75;18.45;;;3.50;99.90;;;;;;5050037;28;20358;-79
2024/01/13 05:33:35;;;;;;;26.05;16.25;;;3.40;99.90;;;;;;5050466;28;20650;-79
2024/01/13 05:36:03;;;;;;;26.75;16.98;;;3.40;99.90;;;;;;5047477;28;20021;-80
2024/01/13 05:38:28;;;;;;;25.35;15.68;;;3.40;99.90;;;;;;5051469;28;20028;-79
2024/01/13 05:40:54;;;;;;;30.00;16.83;;;3.40;99.90;;;;;;5032590;28;20028;-80
2024/01/13 05:43:20;;;;;;;30.58;17.55;;;3.50;99.90;;;;;;5032986;28;20033;-79
2024/01/13 05:45:46;;;;;;;30.83;17.30;;;3.40;99.90;;;;;;5023990;28;20022;-78
2024/01/13 05:48:11;;;;;;;27.70;15.93;;;3.40;99.90;;;;;;5042431;28;20043;-79
2024/01/13 05:50:37;;;;;;;23.40;14.25;;;3.40;99.90;;;;;;5050813;28;20096;-79
2024/01/13 05:53:03;;;;;;;25.27;14.35;;;3.40;99.90;;;;;;5043550;28;20100;-80
2024/01/13 05:55:28;;;;;;;23.75;14.60;;;3.40;99.90;;;;;;5033012;28;20024;-77
2024/01/13 05:57:54;;;;;;;21.77;13.30;;;3.40;99.90;;;;;;5043566;28;20021;-79
2024/01/13 06:00:21;;;;;;;23.80;14.38;;;3.50;99.90;;;;;;5044716;28;20107;-79
2024/01/13 06:02:47;;;;;;;27.75;15.05;;;3.50;99.90;;;;;;5045949;28;20021;-78
2024/01/13 06:05:14;;;;;;;21.02;12.68;;;3.40;99.90;;;;;;5043641;28;20071;-78
2024/01/13 06:07:40;;;;;;;26.13;15.00;;;3.40;99.90;;;;;;5015119;28;20049;-78
2024/01/13 06:10:07;;;;;;;22.73;13.23;;;3.50;99.90;;;;;;5034099;28;20115;-79
2024/01/13 06:12:33;;;;;;;22.45;13.00;;;3.50;99.90;;;;;;5048673;28;20049;-79
2024/01/13 06:14:59;;;;;;;23.48;13.57;;;3.40;99.90;;;;;;5051110;28;20048;-79
2024/01/13 06:17:25;;;;;;;23.98;12.55;;;3.40;99.90;;;;;;5054804;28;20063;-78
2024/01/13 06:19:52;;;;;;;25.30;14.02;;;3.50;99.90;;;;;;5039790;28;20029;-77
2024/01/13 06:22:18;;;;;;;25.38;13.80;;;3.40;99.90;;;;;;5054434;28;20029;-77
2024/01/13 06:24:47;;;;;;;25.10;12.68;;;3.40;99.90;;;;;;5034646;28;20048;-77
2024/01/13 06:27:12;;;;;;;23.25;11.88;;;3.40;99.90;;;;;;5030341;28;20420;-78
2024/01/13 06:29:38;;;;;;;28.85;13.73;;;3.40;99.90;;;;;;5032122;28;20037;-78
2024/01/13 06:32:04;;;;;;;24.08;12.63;;;3.40;99.90;;;;;;5030413;28;20371;-79
2024/01/13 06:34:32;;;;;;;27.40;13.23;;;3.40;99.90;;;;;;5045630;28;20032;-80
2024/01/13 06:36:58;;;;;;;24.95;12.57;;;3.40;99.90;;;;;;5033063;28;20061;-79
2024/01/13 06:39:23;;;;;;;30.35;14.15;;;3.40;99.90;;;;;;5027654;28;20446;-79
2024/01/13 06:41:49;;;;;;;28.50;13.65;;;3.40;99.90;;;;;;5023858;28;20026;-79
2024/01/13 06:44:14;;;;;;;27.92;14.30;;;3.40;99.90;;;;;;5032020;28;20026;-78
2024/01/13 06:46:40;;;;;;;29.95;14.50;;;3.40;99.90;;;;;;5027115;28;20026;-78
2024/01/13 06:49:06;;;;;;;29.63;14.98;;;3.40;99.90;;;;;;5028728;28;20032;-78
2024/01/13 06:51:32;;;;;;;27.00;13.05;;;3.50;99.90;;;;;;5021795;28;20093;-78
2024/01/13 06:53:58;;;;;;;28.80;13.75;;;3.50;99.90;;;;;;5030518;28;20124;-77
2024/01/13 06:56:23;;;;;;;25.08;13.30;;;3.50;99.90;;;;;;5027632;28;20121;-78
2024/01/13 06:58:49;;;;;;;27.95;14.05;;;3.50;99.90;;;;;;5022518;28;20034;-82
2024/01/13 07:01:14;;;;;;;24.95;13.25;;;3.50;99.90;;;;;;5024320;28;20552;-80
2024/01/13 07:03:41;;;;;;;31.17;14.13;;;3.50;99.90;;;;;;5029256;28;20085;-79
2024/01/13 07:06:07;;;;;;;28.90;13.88;;;3.50;99.90;;;;;;5026854;28;20489;-79
2024/01/13 07:08:32;;;;;;;28.70;14.18;;;3.40;99.90;;;;;;5022099;28;20044;-77
2024/01/13 07:10:58;;;;;;;28.73;13.20;;;3.50;99.90;;;;;;5016657;28;20026;-79
2024/01/13 07:13:24;;;;;;;28.35;12.50;;;3.50;99.90;;;;;;5023564;28;20030;-79
2024/01/13 07:15:49;;;;;;;31.55;13.85;;;3.50;99.90;;;;;;5016361;28;20320;-79
2024/01/13 07:18:15;;;;;;;33.40;15.68;;;3.40;99.90;;;;;;5021107;28;20386;-79
2024/01/13 07:20:40;;;;;;;28.92;14.60;;;3.50;99.90;;;;;;5025469;28;20498;-79
2024/01/13 07:23:06;;;;;;;28.42;13.95;;;3.50;99.90;;;;;;5033579;28;20501;-79
2024/01/13 07:25:33;;;;;;;35.97;15.68;;;3.50;99.90;;;;;;5049077;28;20075;-79
2024/01/13 07:27:59;;;;;;;35.78;16.60;;;3.50;99.90;;;;;;5046558;28;20046;-79
2024/01/13 07:30:25;;;;;;;32.67;14.80;;;3.50;99.90;;;;;;5048205;28;20508;-77
2024/01/13 07:32:50;;;;;;;37.80;19.27;;;3.50;99.90;;;;;;5041479;28;20025;-77
2024/01/13 07:35:17;;;;;;;44.78;20.45;;;3.50;99.90;;;;;;5047021;28;20021;-80
2024/01/13 07:37:43;;;;;;;43.10;20.20;;;3.50;99.90;;;;;;5032747;28;20105;-78
2024/01/13 07:40:09;;;;;;;42.55;21.27;;;3.60;99.90;;;;;;5057123;28;20021;-76
2024/01/13 07:42:38;;;;;;;40.72;19.92;;;3.60;99.90;;;;;;5065527;28;20075;-79
2024/01/13 07:45:04;;;;;;;49.15;21.77;;;3.60;99.90;;;;;;5052401;28;20067;-79
2024/01/13 07:47:30;;;;;;;46.85;23.17;;;3.60;99.90;;;;;;5056838;28;20037;-79
2024/01/13 07:49:55;;;;;;;42.85;21.02;;;3.60;99.90;;;;;;5053706;28;20083;-79
2024/01/13 07:52:21;;;;;;;40.42;20.88;;;3.60;99.90;;;;;;5056082;28;20047;-79
2024/01/13 07:54:47;;;;;;;46.08;22.20;;;3.60;99.90;;;;;;5037410;28;20017;-79
2024/01/13 07:57:14;;;;;;;42.92;22.10;;;3.70;99.90;;;;;;5051419;28;20495;-79
2024/01/13 07:59:39;;;;;;;44.17;22.95;;;3.70;99.90;;;;;;5044327;28;20079;-76
2024/01/13 08:02:05;;;;;;;45.30;22.85;;;3.60;99.90;;;;;;5050580;28;20123;-79
2024/01/13 08:04:31;;;;;;;47.38;23.63;;;3.70;99.90;;;;;;5036241;28;20032;-79
2024/01/13 08:06:56;;;;;;;42.13;22.63;;;3.70;99.90;;;;;;5050279;28;20034;-80
2024/01/13 08:09:22;;;;;;;48.72;23.73;;;3.70;99.90;;;;;;5047738;28;20155;-80
2024/01/13 08:11:48;;;;;;;44.08;22.05;;;3.70;99.90;;;;;;5052830;28;20045;-79
2024/01/13 08:14:15;;;;;;;46.85;23.63;;;3.60;99.90;;;;;;5043911;28;20091;-78
2024/01/13 08:16:42;;;;;;;45.15;23.05;;;3.70;99.90;;;;;;5030664;28;20083;-79
2024/01/13 08:19:09;;;;;;;43.85;22.88;;;3.70;99.90;;;;;;5056042;28;20029;-78
2024/01/13 08:21:35;;;;;;;39.85;20.88;;;3.70;99.90;;;;;;5052592;28;20021;-79
2024/01/13 08:24:01;;;;;;;41.72;21.80;;;3.70;99.90;;;;;;5054007;28;20100;-79
2024/01/13 08:26:30;;;;;;;43.95;22.65;;;3.70;99.90;;;;;;5050017;28;20140;-79
2024/01/13 08:28:55;;;;;;;45.80;22.85;;;3.70;99.90;;;;;;5055288;28;20040;-78
2024/01/13 08:31:21;;;;;;;38.85;20.45;;;3.70;99.90;;;;;;5057208;28;20077;-78
2024/01/13 08:33:46;;;;;;;37.28;19.60;;;3.70;99.90;;;;;;5056746;28;20044;-80
2024/01/13 08:36:12;;;;;;;39.03;20.48;;;3.70;99.90;;;;;;5052835;28;20104;-78
2024/01/13 08:38:38;;;;;;;36.28;19.73;;;3.70;99.90;;;;;;5048425;28;20435;-80
2024/01/13 08:41:04;;;;;;;36.53;20.38;;;3.80;99.90;;;;;;5043164;28;20030;-79
2024/01/13 08:43:29;;;;;;;38.63;20.95;;;3.70;99.90;;;;;;5046532;28;20029;-79
2024/01/13 08:45:55;;;;;;;34.15;19.42;;;3.70;99.90;;;;;;5047191;28;20366;-79
2024/01/13 08:48:20;;;;;;;37.95;19.48;;;3.60;99.90;;;;;;5045458;28;20041;-79
2024/01/13 08:50:46;;;;;;;33.70;18.73;;;3.60;99.90;;;;;;5030461;28;20078;-79
2024/01/13 08:53:12;;;;;;;36.33;21.58;;;3.70;99.90;;;;;;5052583;28;20112;-77
2024/01/13 08:55:37;;;;;;;38.28;20.13;;;3.70;99.90;;;;;;5022810;28;20033;-77
2024/01/13 08:58:04;;;;;;;34.42;18.88;;;3.70;99.90;;;;;;5030994;28;20396;-79
2024/01/13 09:00:32;;;;;;;37.78;21.17;;;3.70;99.90;;;;;;5055329;28;20025;-78
2024/01/13 09:02:58;;;;;;;35.03;20.88;;;3.70;99.90;;;;;;5042356;28;20029;-78
2024/01/13 09:05:24;;;;;;;34.92;19.75;;;3.70;99.90;;;;;;5057364;28;20124;-80
2024/01/13 09:07:50;;;;;;;35.53;18.70;;;3.70;99.90;;;;;;5037494;28;20033;-78
2024/01/13 09:10:15;;;;;;;32.63;18.95;;;3.70;99.90;;;;;;5017492;28;20061;-78
2024/01/13 09:12:41;;;;;;;34.33;19.52;;;3.70;99.90;;;;;;5038204;28;20045;-78
2024/01/13 09:15:09;;;;;;;35.17;20.85;;;3.70;99.90;;;;;;5053083;28;20041;-79
2024/01/13 09:17:35;;;;;;;37.35;22.25;;;3.70;99.90;;;;;;5027245;28;20025;-80
2024/01/13 09:20:01;;;;;;;32.28;20.25;;;3.70;99.90;;;;;;5035915;28;20025;-80
2024/01/13 09:22:27;;;;;;;33.30;20.20;;;3.80;99.90;;;;;;5055980;28;20412;-81
2024/01/13 09:24:53;;;;;;;36.17;20.58;;;3.70;99.90;;;;;;5054845;28;20040;-80
2024/01/13 09:27:18;;;;;;;41.38;22.60;;;3.70;99.90;;;;;;5061694;28;20088;-80
2024/01/13 09:29:50;;;;;;;35.33;21.38;;;3.70;99.90;;;;;;5058717;28;20031;-80
2024/01/13 09:32:16;;;;;;;34.67;20.60;;;3.70;99.90;;;;;;5034268;28;20477;-79
2024/01/13 09:34:41;;;;;;;34.13;21.30;;;3.80;99.90;;;;;;5042626;28;20057;-79
2024/01/13 09:37:07;;;;;;;36.92;21.08;;;3.80;99.90;;;;;;5058709;28;20075;-80
2024/01/13 09:39:33;;;;;;;36.35;21.08;;;3.80;99.90;;;;;;5042258;28;20036;-79
2024/01/13 09:42:02;;;;;;;37.33;22.05;;;3.70;99.90;;;;;;5053939;28;20029;-81
2024/01/13 09:44:30;;;;;;;34.95;20.73;;;3.80;99.90;;;;;;5036097;28;20021;-79
2024/01/13 09:46:58;;;;;;;36.03;20.83;;;3.80;99.90;;;;;;5038454;28;20040;-79
2024/01/13 09:49:27;;;;;;;36.03;22.15;;;3.80;99.90;;;;;;5043701;28;20051;-80
2024/01/13 09:51:54;;;;;;;39.65;23.52;;;3.80;99.90;;;;;;5032997;28;20032;-79
2024/01/13 09:54:28;;;;;;;34.75;21.30;;;3.80;99.90;;;;;;5030852;28;20028;-82
2024/01/13 09:56:55;;;;;;;43.50;24.73;;;3.80;99.90;;;;;;5058732;28;20076;-80
2024/01/13 09:59:22;;;;;;;40.38;23.33;;;3.80;99.90;;;;;;5037554;28;20026;-81
2024/01/13 10:01:49;;;;;;;36.22;21.95;;;3.80;99.90;;;;;;5039916;28;20029;-81
2024/01/13 10:04:15;;;;;;;37.92;22.08;;;3.80;99.90;;;;;;5042664;28;20029;-81
2024/01/13 10:06:41;;;;;;;34.05;20.30;;;3.80;99.90;;;;;;5039756;28;20021;-82
2024/01/13 10:09:07;;;;;;;40.40;23.90;;;3.80;99.90;;;;;;5032108;28;20041;-81
2024/01/13 10:11:33;;;;;;;41.03;23.70;;;3.80;99.90;;;;;;5024410;28;20025;-79
2024/01/13 10:14:12;;;;;;;41.20;24.35;;;3.80;99.90;;;;;;5031212;28;20056;-77
2024/01/13 10:16:37;;;;;;;35.50;21.55;;;3.80;99.90;;;;;;5045233;28;20090;-78
2024/01/13 10:19:08;;;;;;;41.72;23.65;;;3.90;99.90;;;;;;5029426;28;20025;-80
2024/01/13 10:21:35;;;;;;;35.90;22.48;;;3.90;99.90;;;;;;5032647;28;20037;-80
2024/01/13 10:24:01;;;;;;;37.03;23.75;;;3.90;99.90;;;;;;5036300;28;20401;-80
2024/01/13 10:26:29;;;;;;;41.58;23.25;;;3.80;99.90;;;;;;5051327;28;20025;-78
2024/01/13 10:28:55;;;;;;;38.15;22.30;;;3.90;99.90;;;;;;5031375;28;20401;-79
2024/01/13 10:31:21;;;;;;;33.78;21.45;;;3.90;99.90;;;;;;5043167;28;20052;-77
2024/01/13 10:33:51;;;;;;;40.95;24.35;;;3.80;99.90;;;;;;5050175;28;20026;-78
2024/01/13 10:36:21;;;;;;;39.15;22.48;;;3.80;99.90;;;;;;5023086;28;20036;-77
2024/01/13 10:38:46;;;;;;;36.78;22.67;;;3.80;99.90;;;;;;5050204;28;20025;-78
2024/01/13 10:41:12;;;;;;;36.65;21.70;;;3.80;99.90;;;;;;5032941;28;20025;-78
2024/01/13 10:43:40;;;;;;;38.58;23.70;;;3.90;99.90;;;;;;5037235;28;20029;-78
2024/01/13 10:46:16;;;;;;;37.75;21.95;;;3.90;99.90;;;;;;5044823;28;20044;-78
2024/01/13 10:48:45;;;;;;;40.10;23.35;;;3.90;99.90;;;;;;5043587;28;20045;-79
2024/01/13 10:51:33;;;;;;;34.22;21.42;;;3.90;99.90;;;;;;5042533;28;20021;-78
2024/01/13 10:54:01;;;;;;;34.65;22.35;;;3.90;99.90;;;;;;5039736;28;20425;-79
2024/01/13 10:56:30;;;;;;;37.15;20.90;;;3.90;99.90;;;;;;5047369;28;20033;-78
2024/01/13 10:58:57;;;;;;;34.03;22.50;;;3.90;99.90;;;;;;5033910;28;20071;-78
2024/01/13 11:01:26;;;;;;;32.40;20.33;;;3.90;99.90;;;;;;5029838;28;20491;-78
2024/01/13 11:03:54;;;;;;;35.75;21.67;;;3.90;99.90;;;;;;5031855;28;20040;-78
2024/01/13 11:06:24;;;;;;;36.17;21.25;;;3.90;99.90;;;;;;5045059;28;20025;-78
2024/01/13 11:08:51;;;;;;;32.60;19.52;;;3.90;99.90;;;;;;5013468;28;20041;-78
2024/01/13 11:11:31;;;;;;;30.02;19.17;;;4.00;99.90;;;;;;5047800;28;20032;-78
2024/01/13 11:14:04;;;;;;;37.67;21.60;;;4.00;99.90;;;;;;5045816;28;20527;-78
2024/01/13 11:16:32;;;;;;;34.53;21.20;;;4.00;99.90;;;;;;5048810;28;20036;-79
2024/01/13 11:18:58;;;;;;;31.88;18.48;;;3.90;99.90;;;;;;5031750;28;20052;-78
2024/01/13 11:21:32;;;;;;;29.77;18.85;;;3.90;99.90;;;;;;5039076;28;20473;-78
2024/01/13 11:24:07;;;;;;;29.77;18.83;;;3.90;99.90;;;;;;5051564;28;20056;-78
2024/01/13 11:26:44;;;;;;;30.15;17.48;;;3.90;99.90;;;;;;5049300;28;20029;-78
2024/01/13 11:29:24;;;;;;;26.42;17.35;;;4.00;99.90;;;;;;5053061;28;20060;-78
2024/01/13 11:31:59;;;;;;;31.25;18.80;;;3.90;99.90;;;;;;5038049;28;20033;-78
2024/01/13 11:34:27;;;;;;;31.95;19.48;;;3.90;99.90;;;;;;5048135;28;20079;-78
2024/01/13 11:36:56;;;;;;;29.40;18.25;;;3.90;99.90;;;;;;5048364;28;20029;-79
2024/01/13 11:39:22;;;;;;;30.40;18.85;;;3.90;99.90;;;;;;5047938;28;20074;-78
2024/01/13 11:41:55;;;;;;;31.70;18.52;;;3.90;99.90;;;;;;5036891;28;20189;-78
2024/01/13 11:44:26;;;;;;;30.80;18.02;;;3.90;99.90;;;;;;5052688;28;20503;-78
2024/01/13 11:47:05;;;;;;;29.60;17.20;;;3.90;99.90;;;;;;5050267;28;20504;-78
2024/01/13 11:49:38;;;;;;;32.88;19.35;;;3.90;99.90;;;;;;5032294;28;20555;-78
2024/01/13 11:52:14;;;;;;;30.58;16.77;;;3.90;99.90;;;;;;5042772;28;20431;-79
2024/01/13 11:54:41;;;;;;;34.10;19.13;;;3.90;99.90;;;;;;5031656;28;20035;-78
2024/01/13 11:57:17;;;;;;;35.75;19.08;;;3.90;99.90;;;;;;5053348;28;20032;-78
2024/01/13 11:59:43;;;;;;;39.70;20.70;;;3.80;99.90;;;;;;5042501;28;20030;-77
2024/01/13 12:02:09;;;;;;;42.08;21.83;;;3.80;99.90;;;;;;5041766;28;20025;-78
2024/01/13 12:04:36;;;;;;;38.25;20.55;;;3.80;99.90;;;;;;5020588;28;20040;-78
2024/01/13 12:07:08;;;;;;;41.42;21.08;;;3.80;99.90;;;;;;5042103;28;20507;-78
2024/01/13 12:09:34;;;;;;;36.70;19.50;;;3.80;99.90;;;;;;5039052;28;20091;-79
2024/01/13 12:12:02;;;;;;;40.13;20.60;;;3.80;99.90;;;;;;5050641;28;20280;-78
2024/01/13 12:14:35;;;;;;;42.72;22.52;;;3.80;99.90;;;;;;5016081;28;20026;-78
2024/01/13 12:17:01;;;;;;;;;;;3.80;99.90;;;;;;5045609;28;20354;-80
2024/01/13 12:19:38;;;;;;;40.30;21.00;;;3.70;99.90;;;;;;5031886;28;19916;-80
2024/01/13 12:22:08;;;;;;;46.78;23.40;;;3.70;99.90;;;;;;5025858;28;20030;-80
2024/01/13 12:24:34;;;;;;;47.25;25.15;;;3.70;99.90;;;;;;5034196;28;20103;-80
2024/01/13 12:27:00;;;;;;;44.28;24.38;;;3.70;99.90;;;;;;5034133;28;20036;-79
2024/01/13 12:29:30;;;;;;;41.80;22.92;;;3.70;99.90;;;;;;5036509;28;20029;-79
2024/01/13 12:32:05;;;;;;;48.53;24.92;;;3.70;99.90;;;;;;5051099;28;20449;-79
2024/01/13 12:34:33;;;;;;;46.65;25.00;;;3.80;99.90;;;;;;5021940;28;20107;-80
2024/01/13 12:37:00;;;;;;;50.63;26.23;;;3.80;99.90;;;;;;5038129;28;20030;-79